sensor_id;sensor_type;location;lat;lon;timestamp;pressure;altitude;pressure_sealevel;temperature;humidity
45040;BME280;30778;53.574;7.770;2022-08-05T00:01:25;101578.19;;;16.49;51.20
45040;BME280;30778;53.574;7.770;2022-08-05T00:03:50;101565.53;;;16.56;51.19
45040;BME280;30778;53.574;7.770;2022-08-05T00:06:16;101556.38;;;16.46;51.48
45040;BME280;30778;53.574;7.770;2022-08-05T00:08:43;101548.97;;;16.36;52.07
45040;BME280;30778;53.574;7.770;2022-08-05T00:11:14;101542.75;;;16.37;51.95
45040;BME280;30778;53.574;7.770;2022-08-05T00:13:42;101550.06;;;16.32;52.44
45040;BME280;30778;53.574;7.770;2022-08-05T00:16:09;101556.50;;;16.11;52.81
45040;BME280;30778;53.574;7.770;2022-08-05T00:18:36;101555.84;;;16.23;52.93
45040;BME280;30778;53.574;7.770;2022-08-05T00:21:01;101541.81;;;16.23;52.90
45040;BME280;30778;53.574;7.770;2022-08-05T00:23:27;101537.63;;;16.18;53.22
45040;BME280;30778;53.574;7.770;2022-08-05T00:25:52;101541.56;;;16.27;53.16
45040;BME280;30778;53.574;7.770;2022-08-05T00:28:18;101536.81;;;16.34;52.95
45040;BME280;30778;53.574;7.770;2022-08-05T00:30:43;101533.59;;;16.45;52.70
45040;BME280;30778;53.574;7.770;2022-08-05T00:33:09;101543.13;;;16.47;52.53
45040;BME280;30778;53.574;7.770;2022-08-05T00:35:35;101547.31;;;16.51;52.36
45040;BME280;30778;53.574;7.770;2022-08-05T00:38:00;101535.88;;;16.51;52.37
45040;BME280;30778;53.574;7.770;2022-08-05T00:40:26;101536.81;;;16.50;52.37
45040;BME280;30778;53.574;7.770;2022-08-05T00:42:52;101538.25;;;16.39;52.71
45040;BME280;30778;53.574;7.770;2022-08-05T00:45:18;101531.34;;;16.37;52.68
45040;BME280;30778;53.574;7.770;2022-08-05T00:47:43;101524.91;;;16.42;52.96
45040;BME280;30778;53.574;7.770;2022-08-05T00:50:09;101521.56;;;16.39;52.84
45040;BME280;30778;53.574;7.770;2022-08-05T00:52:35;101508.22;;;16.42;52.78
45040;BME280;30778;53.574;7.770;2022-08-05T00:55:01;101509.09;;;16.42;52.68
45040;BME280;30778;53.574;7.770;2022-08-05T00:57:26;101503.81;;;16.42;53.14
45040;BME280;30778;53.574;7.770;2022-08-05T00:59:52;101483.03;;;16.36;53.23
45040;BME280;30778;53.574;7.770;2022-08-05T01:02:17;101472.53;;;16.19;53.50
45040;BME280;30778;53.574;7.770;2022-08-05T01:04:43;101458.69;;;16.15;53.67
45040;BME280;30778;53.574;7.770;2022-08-05T01:07:09;101440.88;;;16.03;54.04
45040;BME280;30778;53.574;7.770;2022-08-05T01:09:34;101437.63;;;15.98;54.71
45040;BME280;30778;53.574;7.770;2022-08-05T01:12:08;101443.47;;;15.87;54.77
45040;BME280;30778;53.574;7.770;2022-08-05T01:15:04;101436.16;;;15.59;55.98
45040;BME280;30778;53.574;7.770;2022-08-05T01:17:37;101427.81;;;15.84;54.94
45040;BME280;30778;53.574;7.770;2022-08-05T01:20:41;101422.63;;;15.49;55.80
45040;BME280;30778;53.574;7.770;2022-08-05T01:23:18;101427.53;;;15.73;55.37
45040;BME280;30778;53.574;7.770;2022-08-05T01:28:34;101426.94;;;15.50;55.60
45040;BME280;30778;53.574;7.770;2022-08-05T01:31:08;101426.03;;;15.51;55.45
45040;BME280;30778;53.574;7.770;2022-08-05T01:33:38;101434.84;;;15.50;55.38
45040;BME280;30778;53.574;7.770;2022-08-05T01:36:10;101436.56;;;15.51;55.34
45040;BME280;30778;53.574;7.770;2022-08-05T01:38:37;101428.75;;;15.50;55.20
45040;BME280;30778;53.574;7.770;2022-08-05T01:41:04;101425.66;;;15.42;55.15
45040;BME280;30778;53.574;7.770;2022-08-05T01:43:31;101438.97;;;15.56;55.38
45040;BME280;30778;53.574;7.770;2022-08-05T01:45:58;101461.81;;;15.55;54.97
45040;BME280;30778;53.574;7.770;2022-08-05T01:48:28;101481.16;;;15.72;54.59
45040;BME280;30778;53.574;7.770;2022-08-05T01:50:55;101479.53;;;15.87;54.79
45040;BME280;30778;53.574;7.770;2022-08-05T01:53:22;101485.63;;;15.87;54.07
45040;BME280;30778;53.574;7.770;2022-08-05T01:55:49;101501.97;;;15.94;54.04
45040;BME280;30778;53.574;7.770;2022-08-05T01:58:17;101485.38;;;16.09;54.09
45040;BME280;30778;53.574;7.770;2022-08-05T02:00:48;101474.25;;;16.04;53.50
45040;BME280;30778;53.574;7.770;2022-08-05T02:03:28;101480.78;;;16.13;53.72
45040;BME280;30778;53.574;7.770;2022-08-05T02:05:56;101480.94;;;16.10;53.22
45040;BME280;30778;53.574;7.770;2022-08-05T02:08:21;101498.63;;;16.08;53.37
45040;BME280;30778;53.574;7.770;2022-08-05T02:10:50;101511.78;;;16.25;53.70
45040;BME280;30778;53.574;7.770;2022-08-05T02:13:24;101518.59;;;16.29;52.97
45040;BME280;30778;53.574;7.770;2022-08-05T02:16:13;101503.53;;;16.31;52.94
45040;BME280;30778;53.574;7.770;2022-08-05T02:18:44;101508.69;;;16.17;52.84
45040;BME280;30778;53.574;7.770;2022-08-05T02:21:15;101511.06;;;16.21;52.67
45040;BME280;30778;53.574;7.770;2022-08-05T02:23:45;101514.34;;;16.27;53.00
45040;BME280;30778;53.574;7.770;2022-08-05T02:26:16;101495.44;;;16.18;52.58
45040;BME280;30778;53.574;7.770;2022-08-05T02:28:45;101489.97;;;16.06;52.94
45040;BME280;30778;53.574;7.770;2022-08-05T02:31:25;101501.81;;;16.14;52.80
45040;BME280;30778;53.574;7.770;2022-08-05T02:33:56;101514.50;;;16.24;52.91
45040;BME280;30778;53.574;7.770;2022-08-05T02:36:23;101518.75;;;16.26;52.94
45040;BME280;30778;53.574;7.770;2022-08-05T02:38:51;101526.25;;;16.34;52.61
45040;BME280;30778;53.574;7.770;2022-08-05T02:41:20;101527.09;;;16.34;52.56
45040;BME280;30778;53.574;7.770;2022-08-05T02:43:47;101518.50;;;16.31;52.61
45040;BME280;30778;53.574;7.770;2022-08-05T02:46:17;101514.88;;;16.33;52.94
45040;BME280;30778;53.574;7.770;2022-08-05T02:48:44;101509.91;;;16.27;52.08
45040;BME280;30778;53.574;7.770;2022-08-05T02:51:12;101507.31;;;16.10;52.88
45040;BME280;30778;53.574;7.770;2022-08-05T02:53:39;101499.16;;;16.14;53.10
45040;BME280;30778;53.574;7.770;2022-08-05T02:56:08;101496.44;;;16.16;52.74
45040;BME280;30778;53.574;7.770;2022-08-05T02:58:38;101497.53;;;16.12;52.81
45040;BME280;30778;53.574;7.770;2022-08-05T03:01:06;101509.13;;;16.09;52.91
45040;BME280;30778;53.574;7.770;2022-08-05T03:03:38;101508.78;;;16.15;52.86
45040;BME280;30778;53.574;7.770;2022-08-05T03:06:04;101506.16;;;16.15;52.54
45040;BME280;30778;53.574;7.770;2022-08-05T03:08:30;101505.78;;;15.88;53.49
45040;BME280;30778;53.574;7.770;2022-08-05T03:10:56;101510.28;;;15.86;53.52
45040;BME280;30778;53.574;7.770;2022-08-05T03:13:21;101505.34;;;15.80;54.09
45040;BME280;30778;53.574;7.770;2022-08-05T03:15:47;101499.06;;;15.83;54.33
45040;BME280;30778;53.574;7.770;2022-08-05T03:18:13;101497.56;;;15.94;54.35
45040;BME280;30778;53.574;7.770;2022-08-05T03:20:39;101513.09;;;16.00;53.73
45040;BME280;30778;53.574;7.770;2022-08-05T03:23:07;101506.31;;;15.95;53.50
45040;BME280;30778;53.574;7.770;2022-08-05T03:25:37;101507.50;;;15.89;54.20
45040;BME280;30778;53.574;7.770;2022-08-05T03:28:05;101514.38;;;15.92;53.50
45040;BME280;30778;53.574;7.770;2022-08-05T03:30:32;101515.25;;;15.92;54.17
45040;BME280;30778;53.574;7.770;2022-08-05T03:32:59;101522.72;;;15.84;54.06
45040;BME280;30778;53.574;7.770;2022-08-05T03:35:25;101525.94;;;15.89;53.83
45040;BME280;30778;53.574;7.770;2022-08-05T03:37:53;101523.91;;;15.94;53.37
45040;BME280;30778;53.574;7.770;2022-08-05T03:40:20;101512.13;;;16.02;53.67
45040;BME280;30778;53.574;7.770;2022-08-05T03:42:45;101511.28;;;16.01;53.59
45040;BME280;30778;53.574;7.770;2022-08-05T03:45:11;101512.91;;;16.04;53.16
45040;BME280;30778;53.574;7.770;2022-08-05T03:47:36;101523.06;;;15.94;53.00
45040;BME280;30778;53.574;7.770;2022-08-05T03:50:02;101529.50;;;15.88;53.91
45040;BME280;30778;53.574;7.770;2022-08-05T03:52:31;101518.19;;;15.86;54.04
45040;BME280;30778;53.574;7.770;2022-08-05T03:55:00;101522.50;;;15.71;53.96
45040;BME280;30778;53.574;7.770;2022-08-05T03:57:27;101525.59;;;15.79;54.07
45040;BME280;30778;53.574;7.770;2022-08-05T04:00:08;101529.69;;;15.85;54.04
45040;BME280;30778;53.574;7.770;2022-08-05T04:02:39;101521.22;;;15.78;54.16
45040;BME280;30778;53.574;7.770;2022-08-05T04:05:08;101527.59;;;15.74;54.05
45040;BME280;30778;53.574;7.770;2022-08-05T04:07:36;101520.69;;;15.72;54.14
45040;BME280;30778;53.574;7.770;2022-08-05T04:10:03;101517.00;;;15.58;54.24
45040;BME280;30778;53.574;7.770;2022-08-05T04:12:29;101515.44;;;15.72;54.72
45040;BME280;30778;53.574;7.770;2022-08-05T04:14:56;101526.19;;;15.85;54.30
45040;BME280;30778;53.574;7.770;2022-08-05T04:17:22;101536.31;;;15.92;54.13
45040;BME280;30778;53.574;7.770;2022-08-05T04:19:47;101527.03;;;16.03;54.12
45040;BME280;30778;53.574;7.770;2022-08-05T04:22:13;101533.69;;;16.10;53.63
45040;BME280;30778;53.574;7.770;2022-08-05T04:24:40;101543.91;;;16.16;53.62
45040;BME280;30778;53.574;7.770;2022-08-05T04:27:06;101532.94;;;16.24;53.57
45040;BME280;30778;53.574;7.770;2022-08-05T04:29:32;101530.84;;;16.30;53.22
45040;BME280;30778;53.574;7.770;2022-08-05T04:31:58;101533.66;;;16.27;52.91
45040;BME280;30778;53.574;7.770;2022-08-05T04:34:23;101533.91;;;16.38;53.29
45040;BME280;30778;53.574;7.770;2022-08-05T04:36:49;101526.53;;;16.45;52.66
45040;BME280;30778;53.574;7.770;2022-08-05T04:39:14;101522.94;;;16.46;52.20
45040;BME280;30778;53.574;7.770;2022-08-05T04:41:40;101519.13;;;16.52;52.29
45040;BME280;30778;53.574;7.770;2022-08-05T04:44:05;101510.00;;;16.41;51.54
45040;BME280;30778;53.574;7.770;2022-08-05T04:46:31;101516.88;;;16.44;52.03
45040;BME280;30778;53.574;7.770;2022-08-05T04:48:57;101513.41;;;16.44;51.89
45040;BME280;30778;53.574;7.770;2022-08-05T04:51:22;101516.22;;;16.40;51.59
45040;BME280;30778;53.574;7.770;2022-08-05T04:53:48;101524.13;;;16.40;51.69
45040;BME280;30778;53.574;7.770;2022-08-05T04:56:13;101528.81;;;16.35;52.17
45040;BME280;30778;53.574;7.770;2022-08-05T04:58:39;101524.47;;;16.34;52.04
45040;BME280;30778;53.574;7.770;2022-08-05T05:01:05;101526.59;;;16.44;51.92
45040;BME280;30778;53.574;7.770;2022-08-05T05:03:31;101524.41;;;16.36;51.73
45040;BME280;30778;53.574;7.770;2022-08-05T05:05:56;101531.41;;;16.19;51.93
45040;BME280;30778;53.574;7.770;2022-08-05T05:08:22;101524.19;;;16.23;52.25
45040;BME280;30778;53.574;7.770;2022-08-05T05:10:47;101526.06;;;16.21;52.10
45040;BME280;30778;53.574;7.770;2022-08-05T05:13:14;101528.00;;;16.17;51.87
45040;BME280;30778;53.574;7.770;2022-08-05T05:15:41;101524.47;;;16.34;52.31
45040;BME280;30778;53.574;7.770;2022-08-05T05:18:07;101531.66;;;16.15;52.00
45040;BME280;30778;53.574;7.770;2022-08-05T05:20:34;101517.75;;;16.29;51.67
45040;BME280;30778;53.574;7.770;2022-08-05T05:23:01;101521.06;;;16.32;51.84
45040;BME280;30778;53.574;7.770;2022-08-05T05:25:29;101530.81;;;16.14;52.02
45040;BME280;30778;53.574;7.770;2022-08-05T05:27:55;101534.94;;;16.36;51.50
45040;BME280;30778;53.574;7.770;2022-08-05T05:30:21;101534.09;;;16.35;51.50
45040;BME280;30778;53.574;7.770;2022-08-05T05:32:47;101542.75;;;16.37;51.58
45040;BME280;30778;53.574;7.770;2022-08-05T05:35:13;101548.66;;;16.42;51.52
45040;BME280;30778;53.574;7.770;2022-08-05T05:37:58;101547.16;;;16.21;52.06
45040;BME280;30778;53.574;7.770;2022-08-05T05:40:25;101540.34;;;16.17;52.15
45040;BME280;30778;53.574;7.770;2022-08-05T05:42:52;101538.06;;;16.11;52.50
45040;BME280;30778;53.574;7.770;2022-08-05T05:45:19;101533.38;;;16.16;52.36
45040;BME280;30778;53.574;7.770;2022-08-05T05:47:45;101532.03;;;16.25;51.92
45040;BME280;30778;53.574;7.770;2022-08-05T05:50:13;101518.09;;;16.38;51.61
45040;BME280;30778;53.574;7.770;2022-08-05T05:52:39;101533.91;;;16.38;51.71
45040;BME280;30778;53.574;7.770;2022-08-05T05:55:07;101546.00;;;16.27;52.10
45040;BME280;30778;53.574;7.770;2022-08-05T05:57:35;101553.66;;;16.31;52.24
45040;BME280;30778;53.574;7.770;2022-08-05T06:00:01;101547.28;;;16.35;51.44
45040;BME280;30778;53.574;7.770;2022-08-05T06:02:26;101543.09;;;16.31;51.15
45040;BME280;30778;53.574;7.770;2022-08-05T06:04:52;101550.09;;;16.64;50.69
45040;BME280;30778;53.574;7.770;2022-08-05T06:07:17;101543.13;;;16.63;50.04
45040;BME280;30778;53.574;7.770;2022-08-05T06:09:43;101544.50;;;16.86;49.75
45040;BME280;30778;53.574;7.770;2022-08-05T06:12:08;101548.25;;;17.14;49.72
45040;BME280;30778;53.574;7.770;2022-08-05T06:14:34;101536.81;;;17.13;49.11
45040;BME280;30778;53.574;7.770;2022-08-05T06:16:59;101529.13;;;17.24;48.64
45040;BME280;30778;53.574;7.770;2022-08-05T06:19:26;101535.78;;;17.32;48.47
45040;BME280;30778;53.574;7.770;2022-08-05T06:21:51;101531.56;;;17.43;47.65
45040;BME280;30778;53.574;7.770;2022-08-05T06:24:17;101535.22;;;17.57;47.12
45040;BME280;30778;53.574;7.770;2022-08-05T06:26:42;101532.78;;;17.68;47.07
45040;BME280;30778;53.574;7.770;2022-08-05T06:29:08;101536.47;;;17.80;46.69
45040;BME280;30778;53.574;7.770;2022-08-05T06:31:33;101538.13;;;17.67;46.64
45040;BME280;30778;53.574;7.770;2022-08-05T06:33:59;101532.91;;;17.51;46.65
45040;BME280;30778;53.574;7.770;2022-08-05T06:36:25;101528.59;;;17.50;46.79
45040;BME280;30778;53.574;7.770;2022-08-05T06:38:50;101530.41;;;17.78;45.84
45040;BME280;30778;53.574;7.770;2022-08-05T06:41:20;101541.03;;;17.92;45.81
45040;BME280;30778;53.574;7.770;2022-08-05T06:43:46;101539.13;;;17.94;45.29
45040;BME280;30778;53.574;7.770;2022-08-05T06:46:11;101540.06;;;17.79;45.16
45040;BME280;30778;53.574;7.770;2022-08-05T06:48:37;101528.63;;;18.07;44.58
45040;BME280;30778;53.574;7.770;2022-08-05T06:51:03;101542.34;;;17.85;44.84
45040;BME280;30778;53.574;7.770;2022-08-05T06:53:29;101549.47;;;17.69;45.38
45040;BME280;30778;53.574;7.770;2022-08-05T06:55:56;101545.50;;;17.76;44.88
45040;BME280;30778;53.574;7.770;2022-08-05T06:58:22;101550.47;;;18.11;45.06
45040;BME280;30778;53.574;7.770;2022-08-05T07:00:48;101550.50;;;18.39;43.87
45040;BME280;30778;53.574;7.770;2022-08-05T07:03:13;101543.91;;;18.32;43.56
45040;BME280;30778;53.574;7.770;2022-08-05T07:05:39;101548.72;;;18.25;44.41
45040;BME280;30778;53.574;7.770;2022-08-05T07:08:04;101550.66;;;18.36;43.62
45040;BME280;30778;53.574;7.770;2022-08-05T07:10:31;101554.84;;;18.26;43.42
45040;BME280;30778;53.574;7.770;2022-08-05T07:12:57;101564.50;;;18.41;43.18
45040;BME280;30778;53.574;7.770;2022-08-05T07:15:41;101569.75;;;18.56;43.98
45040;BME280;30778;53.574;7.770;2022-08-05T07:18:25;101564.75;;;18.65;42.75
45040;BME280;30778;53.574;7.770;2022-08-05T07:20:51;101566.97;;;18.72;42.63
45040;BME280;30778;53.574;7.770;2022-08-05T07:23:16;101565.28;;;19.12;41.18
45040;BME280;30778;53.574;7.770;2022-08-05T07:25:41;101562.28;;;19.97;39.19
45040;BME280;30778;53.574;7.770;2022-08-05T07:28:07;101565.03;;;20.46;39.80
45040;BME280;30778;53.574;7.770;2022-08-05T07:30:34;101562.16;;;20.49;38.96
45040;BME280;30778;53.574;7.770;2022-08-05T07:33:04;101571.25;;;21.67;35.75
45040;BME280;30778;53.574;7.770;2022-08-05T07:35:30;101565.97;;;22.46;34.74
45040;BME280;30778;53.574;7.770;2022-08-05T07:37:56;101572.72;;;25.32;29.11
45040;BME280;30778;53.574;7.770;2022-08-05T07:40:22;101569.06;;;25.52;29.61
45040;BME280;30778;53.574;7.770;2022-08-05T07:42:47;101567.09;;;25.15;29.17
45040;BME280;30778;53.574;7.770;2022-08-05T07:45:13;101580.06;;;23.89;31.61
45040;BME280;30778;53.574;7.770;2022-08-05T07:47:41;101575.25;;;23.29;32.63
45040;BME280;30778;53.574;7.770;2022-08-05T07:50:07;101578.09;;;22.39;33.57
45040;BME280;30778;53.574;7.770;2022-08-05T07:52:38;101573.94;;;21.19;35.24
45040;BME280;30778;53.574;7.770;2022-08-05T07:55:04;101577.84;;;20.52;36.40
45040;BME280;30778;53.574;7.770;2022-08-05T07:57:30;101584.25;;;20.50;36.48
45040;BME280;30778;53.574;7.770;2022-08-05T07:59:55;101596.72;;;20.73;36.65
45040;BME280;30778;53.574;7.770;2022-08-05T08:02:25;101590.72;;;21.20;35.76
45040;BME280;30778;53.574;7.770;2022-08-05T08:04:51;101592.53;;;21.79;34.23
45040;BME280;30778;53.574;7.770;2022-08-05T08:07:17;101587.47;;;22.99;32.56
45040;BME280;30778;53.574;7.770;2022-08-05T08:09:44;101585.75;;;23.84;30.38
45040;BME280;30778;53.574;7.770;2022-08-05T08:12:10;101582.16;;;25.65;28.11
45040;BME280;30778;53.574;7.770;2022-08-05T08:14:39;101579.59;;;26.48;26.88
45040;BME280;30778;53.574;7.770;2022-08-05T08:17:06;101581.09;;;27.94;24.08
45040;BME280;30778;53.574;7.770;2022-08-05T08:19:39;101565.53;;;29.73;21.84
45040;BME280;30778;53.574;7.770;2022-08-05T08:22:06;101565.25;;;31.01;20.33
45040;BME280;30778;53.574;7.770;2022-08-05T08:24:32;101573.31;;;29.35;21.76
45040;BME280;30778;53.574;7.770;2022-08-05T08:26:58;101575.81;;;27.32;24.23
45040;BME280;30778;53.574;7.770;2022-08-05T08:29:23;101579.22;;;27.42;24.59
45040;BME280;30778;53.574;7.770;2022-08-05T08:31:49;101572.13;;;25.67;26.12
45040;BME280;30778;53.574;7.770;2022-08-05T08:34:20;101571.50;;;24.56;27.58
45040;BME280;30778;53.574;7.770;2022-08-05T08:36:46;101567.16;;;23.73;29.13
45040;BME280;30778;53.574;7.770;2022-08-05T08:39:12;101574.59;;;23.05;30.90
45040;BME280;30778;53.574;7.770;2022-08-05T08:41:40;101571.16;;;22.82;30.48
45040;BME280;30778;53.574;7.770;2022-08-05T08:44:10;101583.16;;;22.53;31.10
45040;BME280;30778;53.574;7.770;2022-08-05T08:46:40;101582.09;;;22.33;31.49
45040;BME280;30778;53.574;7.770;2022-08-05T08:49:06;101587.56;;;22.21;32.12
45040;BME280;30778;53.574;7.770;2022-08-05T08:51:34;101584.59;;;22.01;31.31
45040;BME280;30778;53.574;7.770;2022-08-05T08:54:01;101585.50;;;21.77;30.98
45040;BME280;30778;53.574;7.770;2022-08-05T08:56:27;101582.44;;;21.60;31.16
45040;BME280;30778;53.574;7.770;2022-08-05T08:58:52;101580.75;;;22.39;29.97
45040;BME280;30778;53.574;7.770;2022-08-05T09:01:18;101585.50;;;23.87;28.69
45040;BME280;30778;53.574;7.770;2022-08-05T09:03:48;101580.53;;;25.92;25.54
45040;BME280;30778;53.574;7.770;2022-08-05T09:06:14;101576.56;;;26.05;25.08
45040;BME280;30778;53.574;7.770;2022-08-05T09:08:40;101571.50;;;24.56;26.68
45040;BME280;30778;53.574;7.770;2022-08-05T09:11:06;101568.00;;;23.73;27.51
45040;BME280;30778;53.574;7.770;2022-08-05T09:13:33;101567.47;;;23.37;28.39
45040;BME280;30778;53.574;7.770;2022-08-05T09:15:58;101570.97;;;23.38;28.42
45040;BME280;30778;53.574;7.770;2022-08-05T09:18:24;101573.09;;;23.12;29.03
45040;BME280;30778;53.574;7.770;2022-08-05T09:20:50;101571.81;;;23.06;30.38
45040;BME280;30778;53.574;7.770;2022-08-05T09:23:16;101570.09;;;24.21;28.30
45040;BME280;30778;53.574;7.770;2022-08-05T09:25:44;101572.59;;;23.18;28.79
45040;BME280;30778;53.574;7.770;2022-08-05T09:28:22;101583.72;;;25.09;25.52
45040;BME280;30778;53.574;7.770;2022-08-05T09:33:17;101579.44;;;24.77;26.95
45040;BME280;30778;53.574;7.770;2022-08-05T09:36:00;101579.16;;;25.48;27.25
45040;BME280;30778;53.574;7.770;2022-08-05T09:38:26;101573.72;;;25.60;26.82
45040;BME280;30778;53.574;7.770;2022-08-05T09:40:52;101567.78;;;25.17;26.76
45040;BME280;30778;53.574;7.770;2022-08-05T09:43:47;101557.59;;;24.62;27.66
45040;BME280;30778;53.574;7.770;2022-08-05T09:48:52;101569.91;;;23.29;29.44
45040;BME280;30778;53.574;7.770;2022-08-05T09:51:30;101581.34;;;22.43;30.67
45040;BME280;30778;53.574;7.770;2022-08-05T09:53:57;101571.03;;;22.04;31.35
45040;BME280;30778;53.574;7.770;2022-08-05T09:56:28;101571.69;;;22.19;30.77
45040;BME280;30778;53.574;7.770;2022-08-05T09:59:03;101574.94;;;22.56;30.93
45040;BME280;30778;53.574;7.770;2022-08-05T10:01:29;101567.53;;;23.15;29.83
45040;BME280;30778;53.574;7.770;2022-08-05T10:04:07;101565.84;;;23.14;30.60
45040;BME280;30778;53.574;7.770;2022-08-05T10:06:41;101570.66;;;22.88;30.84
45040;BME280;30778;53.574;7.770;2022-08-05T10:09:16;101563.78;;;22.85;30.22
45040;BME280;30778;53.574;7.770;2022-08-05T10:11:44;101570.56;;;21.99;32.14
45040;BME280;30778;53.574;7.770;2022-08-05T10:14:45;101578.88;;;21.83;31.89
45040;BME280;30778;53.574;7.770;2022-08-05T10:17:13;101569.88;;;21.38;32.48
45040;BME280;30778;53.574;7.770;2022-08-05T10:19:39;101581.81;;;20.97;33.23
45040;BME280;30778;53.574;7.770;2022-08-05T10:22:06;101582.63;;;20.73;33.55
45040;BME280;30778;53.574;7.770;2022-08-05T10:24:32;101593.28;;;20.47;34.67
45040;BME280;30778;53.574;7.770;2022-08-05T10:26:58;101586.72;;;20.40;34.71
45040;BME280;30778;53.574;7.770;2022-08-05T10:29:25;101590.44;;;20.25;35.17
45040;BME280;30778;53.574;7.770;2022-08-05T10:31:51;101587.56;;;20.28;34.64
45040;BME280;30778;53.574;7.770;2022-08-05T10:34:17;101595.41;;;19.91;35.44
45040;BME280;30778;53.574;7.770;2022-08-05T10:36:43;101609.94;;;20.11;35.25
45040;BME280;30778;53.574;7.770;2022-08-05T10:41:58;101600.75;;;20.29;35.17
45040;BME280;30778;53.574;7.770;2022-08-05T10:44:26;101605.59;;;20.48;35.12
45040;BME280;30778;53.574;7.770;2022-08-05T10:46:55;101605.06;;;20.43;34.36
45040;BME280;30778;53.574;7.770;2022-08-05T10:49:23;101607.28;;;20.49;35.33
45040;BME280;30778;53.574;7.770;2022-08-05T10:51:52;101601.41;;;20.70;35.58
45040;BME280;30778;53.574;7.770;2022-08-05T10:54:46;101599.34;;;21.23;34.12
45040;BME280;30778;53.574;7.770;2022-08-05T10:57:24;101589.22;;;22.44;32.01
45040;BME280;30778;53.574;7.770;2022-08-05T11:00:05;101586.44;;;23.23;30.22
45040;BME280;30778;53.574;7.770;2022-08-05T11:02:31;101589.50;;;23.93;30.86
45040;BME280;30778;53.574;7.770;2022-08-05T11:04:57;101590.91;;;24.58;28.24
45040;BME280;30778;53.574;7.770;2022-08-05T11:07:23;101596.22;;;25.18;27.56
45040;BME280;30778;53.574;7.770;2022-08-05T11:09:52;101591.56;;;25.30;27.13
45040;BME280;30778;53.574;7.770;2022-08-05T11:15:28;101588.41;;;24.36;28.61
45040;BME280;30778;53.574;7.770;2022-08-05T11:20:50;101585.00;;;23.72;28.28
45040;BME280;30778;53.574;7.770;2022-08-05T11:23:41;101593.63;;;23.44;29.12
45040;BME280;30778;53.574;7.770;2022-08-05T11:26:10;101603.06;;;23.48;29.39
45040;BME280;30778;53.574;7.770;2022-08-05T11:28:40;101621.44;;;22.75;30.26
45040;BME280;30778;53.574;7.770;2022-08-05T11:33:36;101637.84;;;20.93;32.68
45040;BME280;30778;53.574;7.770;2022-08-05T11:36:06;101640.00;;;20.37;35.24
45040;BME280;30778;53.574;7.770;2022-08-05T11:43:32;101625.38;;;23.14;30.77
45040;BME280;30778;53.574;7.770;2022-08-05T11:45:58;101648.28;;;22.15;32.14
45040;BME280;30778;53.574;7.770;2022-08-05T11:48:25;101650.19;;;21.43;32.63
45040;BME280;30778;53.574;7.770;2022-08-05T11:50:51;101651.47;;;20.50;33.63
45040;BME280;30778;53.574;7.770;2022-08-05T11:53:18;101647.16;;;21.60;31.83
45040;BME280;30778;53.574;7.770;2022-08-05T11:56:00;101659.81;;;21.81;31.24
45040;BME280;30778;53.574;7.770;2022-08-05T12:01:05;101667.84;;;22.72;30.07
45040;BME280;30778;53.574;7.770;2022-08-05T12:06:05;101663.78;;;23.00;28.36
45040;BME280;30778;53.574;7.770;2022-08-05T12:08:31;101668.66;;;22.95;28.84
45040;BME280;30778;53.574;7.770;2022-08-05T12:10:58;101684.09;;;22.11;30.51
45040;BME280;30778;53.574;7.770;2022-08-05T12:13:25;101685.94;;;21.51;30.91
45040;BME280;30778;53.574;7.770;2022-08-05T12:15:51;101694.00;;;21.50;30.92
45040;BME280;30778;53.574;7.770;2022-08-05T12:18:33;101686.59;;;22.82;28.63
45040;BME280;30778;53.574;7.770;2022-08-05T12:21:13;101698.22;;;22.47;28.76
45040;BME280;30778;53.574;7.770;2022-08-05T12:23:46;101707.38;;;22.21;29.42
45040;BME280;30778;53.574;7.770;2022-08-05T12:26:15;101703.28;;;21.07;30.96
45040;BME280;30778;53.574;7.770;2022-08-05T12:28:40;101712.50;;;21.14;30.32
45040;BME280;30778;53.574;7.770;2022-08-05T12:31:07;101711.97;;;21.22;30.42
45040;BME280;30778;53.574;7.770;2022-08-05T12:33:33;101720.56;;;21.13;30.63
45040;BME280;30778;53.574;7.770;2022-08-05T12:36:00;101717.66;;;21.90;29.53
45040;BME280;30778;53.574;7.770;2022-08-05T12:38:25;101726.22;;;22.17;28.95
45040;BME280;30778;53.574;7.770;2022-08-05T12:40:52;101733.00;;;22.22;28.62
45040;BME280;30778;53.574;7.770;2022-08-05T12:43:18;101729.25;;;22.71;29.10
45040;BME280;30778;53.574;7.770;2022-08-05T12:45:54;101741.59;;;22.83;28.67
45040;BME280;30778;53.574;7.770;2022-08-05T12:48:21;101740.84;;;23.37;27.21
45040;BME280;30778;53.574;7.770;2022-08-05T12:51:10;101741.56;;;22.61;28.73
45040;BME280;30778;53.574;7.770;2022-08-05T12:53:41;101745.59;;;22.20;28.61
45040;BME280;30778;53.574;7.770;2022-08-05T12:56:20;101741.84;;;21.63;28.77
45040;BME280;30778;53.574;7.770;2022-08-05T12:59:13;101757.50;;;22.38;28.02
45040;BME280;30778;53.574;7.770;2022-08-05T13:01:40;101760.91;;;22.51;26.42
45040;BME280;30778;53.574;7.770;2022-08-05T13:04:06;101756.31;;;21.59;27.98
45040;BME280;30778;53.574;7.770;2022-08-05T13:06:36;101760.97;;;21.68;29.03
45040;BME280;30778;53.574;7.770;2022-08-05T13:09:07;101764.13;;;21.73;29.81
45040;BME280;30778;53.574;7.770;2022-08-05T13:11:37;101771.16;;;23.03;29.08
45040;BME280;30778;53.574;7.770;2022-08-05T13:16:56;101768.00;;;23.20;27.31
45040;BME280;30778;53.574;7.770;2022-08-05T13:19:27;101761.44;;;21.97;29.70
45040;BME280;30778;53.574;7.770;2022-08-05T13:21:54;101773.22;;;21.08;32.15
45040;BME280;30778;53.574;7.770;2022-08-05T13:24:21;101780.53;;;19.59;34.15
45040;BME280;30778;53.574;7.770;2022-08-05T13:26:48;101788.72;;;19.83;34.29
45040;BME280;30778;53.574;7.770;2022-08-05T13:29:15;101798.03;;;19.76;34.77